createdAt,value
2016-11-14T00:00:35.943Z,99.99
2016-11-14T00:01:46.292Z,99.99
2016-11-14T00:02:56.421Z,99.99
2016-11-14T00:04:06.114Z,99.99
2016-11-14T00:05:15.831Z,99.99
2016-11-14T00:06:25.519Z,99.99
2016-11-14T00:07:35.866Z,99.99
2016-11-14T00:08:45.912Z,99.99
2016-11-14T00:09:56.232Z,99.99
2016-11-14T00:11:05.628Z,99.99
2016-11-14T00:12:15.425Z,99.99
2016-11-14T00:13:25.449Z,99.99
2016-11-14T00:14:35.174Z,99.99
2016-11-14T00:15:45.223Z,99.99
2016-11-14T00:16:55.228Z,99.99
2016-11-14T00:18:04.313Z,99.99
2016-11-14T00:19:13.797Z,99.99
2016-11-14T00:20:23.877Z,99.99
2016-11-14T00:21:34.183Z,99.99
2016-11-14T00:22:43.884Z,99.99
2016-11-14T00:23:54.216Z,99.99
2016-11-14T00:25:04.274Z,99.99
2016-11-14T00:26:14.794Z,99.99
2016-11-14T00:27:25.101Z,99.99
2016-11-14T00:28:35.107Z,99.99
2016-11-14T00:29:44.856Z,99.99
2016-11-14T00:30:54.952Z,99.99
2016-11-14T00:32:05.248Z,99.99
2016-11-14T00:33:14.995Z,99.99
2016-11-14T00:34:25.073Z,99.99
2016-11-14T00:35:35.049Z,99.99
2016-11-14T00:36:44.743Z,99.99
2016-11-14T00:37:54.469Z,99.99
2016-11-14T00:39:04.460Z,99.99
2016-11-14T00:40:14.461Z,99.99
2016-11-14T00:41:24.465Z,99.99
2016-11-14T00:42:33.825Z,99.99
2016-11-14T00:43:43.506Z,99.99
2016-11-14T00:44:53.925Z,99.99
2016-11-14T00:46:03.935Z,99.99
2016-11-14T00:47:13.646Z,99.99
2016-11-14T00:48:23.327Z,99.99
2016-11-14T00:49:33.362Z,99.99
2016-11-14T00:50:43.385Z,99.99
2016-11-14T00:51:53.083Z,99.99
2016-11-14T00:53:03.384Z,99.99
2016-11-14T00:54:13.442Z,99.99
2016-11-14T00:55:23.137Z,99.99
2016-11-14T00:56:33.160Z,99.99
2016-11-14T00:57:42.534Z,99.99
2016-11-14T00:58:52.532Z,99.99
2016-11-14T01:00:02.227Z,99.99
2016-11-14T01:01:12.184Z,99.99
2016-11-14T01:02:22.218Z,99.99
2016-11-14T01:03:32.626Z,99.99
2016-11-14T01:04:42.312Z,99.99
2016-11-14T01:05:52.011Z,99.99
2016-11-14T01:07:02.011Z,99.99
2016-11-14T01:08:11.418Z,99.99
2016-11-14T01:09:21.527Z,99.99
2016-11-14T01:10:31.539Z,99.99
2016-11-14T01:11:41.565Z,99.99
2016-11-14T01:12:51.578Z,99.99
2016-11-14T01:14:01.936Z,99.99
2016-11-14T01:15:12.025Z,99.99
2016-11-14T01:16:21.808Z,99.99
2016-11-14T01:17:31.497Z,99.99
2016-11-14T01:18:41.807Z,99.99
2016-11-14T01:19:51.917Z,99.99
2016-11-14T01:21:00.970Z,99.99
2016-11-14T01:22:10.668Z,99.99
2016-11-14T01:23:20.237Z,99.99
2016-11-14T01:24:29.949Z,99.99
2016-11-14T01:25:39.986Z,99.99
2016-11-14T01:26:49.775Z,99.99
2016-11-14T01:27:59.468Z,99.99
2016-11-14T01:29:09.905Z,99.99
2016-11-14T01:30:19.599Z,99.99
2016-11-14T01:31:29.923Z,99.99
2016-11-14T01:32:39.958Z,99.99
2016-11-14T01:33:50.062Z,99.99
2016-11-14T01:35:00.152Z,99.99
2016-11-14T01:36:09.854Z,99.99
2016-11-14T01:37:19.538Z,99.99
2016-11-14T01:38:29.537Z,99.99
2016-11-14T01:39:39.634Z,99.99
2016-11-14T01:40:49.659Z,99.99
2016-11-14T01:41:59.347Z,99.99
2016-11-14T01:43:09.078Z,99.99
2016-11-14T01:44:19.419Z,99.99
2016-11-14T01:45:29.749Z,99.99
2016-11-14T01:46:40.144Z,99.99
2016-11-14T01:47:50.139Z,99.99
2016-11-14T01:49:00.179Z,99.99
2016-11-14T01:50:09.889Z,99.99
2016-11-14T01:51:19.968Z,99.99
2016-11-14T01:52:30.059Z,99.99
2016-11-14T01:53:40.457Z,99.99
2016-11-14T01:54:50.440Z,99.99
2016-11-14T01:56:00.458Z,99.99
2016-11-14T01:57:10.523Z,99.99
2016-11-14T01:58:20.523Z,99.99
2016-11-14T01:59:30.295Z,99.99
2016-11-14T02:00:40.301Z,99.99
2016-11-14T02:01:50.277Z,99.99
2016-11-14T02:03:00.034Z,99.99
2016-11-14T02:04:09.416Z,99.99
2016-11-14T02:05:19.783Z,99.99
2016-11-14T02:06:29.760Z,99.99
2016-11-14T02:07:40.178Z,99.99
2016-11-14T02:08:50.568Z,99.99
2016-11-14T02:10:00.450Z,99.99
2016-11-14T02:11:10.871Z,99.99
2016-11-14T02:12:20.884Z,99.99
2016-11-14T02:13:30.920Z,99.99
2016-11-14T02:14:40.663Z,99.99
2016-11-14T02:15:50.378Z,99.99
2016-11-14T02:17:00.059Z,99.99
2016-11-14T02:18:09.738Z,99.99
2016-11-14T02:19:19.770Z,99.99
2016-11-14T02:20:29.771Z,99.99
2016-11-14T02:21:39.530Z,99.99
2016-11-14T02:22:49.644Z,99.99
2016-11-14T02:23:59.359Z,99.99
2016-11-14T02:25:09.048Z,99.99
2016-11-14T02:26:18.869Z,99.99
2016-11-14T02:27:28.877Z,99.99
2016-11-14T02:28:39.258Z,99.99
2016-11-14T02:29:49.275Z,99.99
2016-11-14T02:30:59.698Z,99.99
2016-11-14T02:32:09.693Z,99.99
2016-11-14T02:33:20.098Z,99.99
2016-11-14T02:34:30.405Z,99.99
2016-11-14T02:35:40.400Z,99.99
2016-11-14T02:36:50.383Z,99.99
2016-11-14T02:37:59.778Z,99.99
2016-11-14T02:39:09.879Z,99.99
2016-11-14T02:40:19.907Z,99.99
2016-11-14T02:41:30.009Z,99.99
2016-11-14T02:42:40.312Z,99.99
2016-11-14T02:43:50.066Z,99.99
2016-11-14T02:44:59.760Z,99.99
2016-11-14T02:46:09.148Z,99.99
2016-11-14T02:47:19.136Z,99.99
2016-11-14T02:48:29.280Z,99.99
2016-11-14T02:49:38.969Z,99.99
2016-11-14T02:50:48.688Z,99.99
2016-11-14T02:51:58.688Z,99.99
2016-11-14T02:53:08.137Z,99.99
2016-11-14T02:54:18.129Z,99.99
2016-11-14T02:55:28.278Z,99.99
2016-11-14T02:56:37.650Z,99.99
2016-11-14T02:57:47.707Z,99.99
2016-11-14T02:58:58.017Z,99.99
2016-11-14T03:00:08.017Z,99.99
2016-11-14T03:01:17.698Z,99.99
2016-11-14T03:02:28.026Z,99.99
2016-11-14T03:03:38.357Z,99.99
2016-11-14T03:04:48.458Z,99.99
2016-11-14T03:05:58.626Z,99.99
2016-11-14T03:07:08.007Z,99.99
2016-11-14T03:08:17.393Z,99.99
2016-11-14T03:09:27.383Z,99.99
2016-11-14T03:10:37.399Z,99.99
2016-11-14T03:11:47.394Z,99.99
2016-11-14T03:12:57.718Z,99.99
2016-11-14T03:14:07.107Z,99.99
2016-11-14T03:15:17.247Z,99.99
2016-11-14T03:16:27.367Z,99.99
2016-11-14T03:17:37.445Z,99.99
2016-11-14T03:18:47.479Z,99.99
2016-11-14T03:19:57.165Z,99.99
2016-11-14T03:21:06.877Z,99.99
2016-11-14T03:22:16.598Z,99.99
2016-11-14T03:23:26.294Z,99.99
2016-11-14T03:24:36.447Z,99.99
2016-11-14T03:25:45.832Z,99.99
2016-11-14T03:26:55.530Z,99.99
2016-11-14T03:28:05.287Z,99.99
2016-11-14T03:29:15.308Z,99.99
2016-11-14T03:30:24.699Z,99.99
2016-11-14T03:31:34.770Z,99.99
2016-11-14T03:32:44.452Z,99.99
2016-11-14T03:33:54.236Z,99.99
2016-11-14T03:35:04.337Z,99.99
2016-11-14T03:36:14.637Z,99.99
2016-11-14T03:37:24.636Z,99.99
2016-11-14T03:38:35.082Z,99.99
2016-11-14T03:39:45.423Z,99.99
2016-11-14T03:40:54.801Z,99.99
2016-11-14T03:42:04.507Z,99.99
2016-11-14T03:43:14.189Z,99.99
2016-11-14T03:44:23.928Z,99.99
2016-11-14T03:45:33.315Z,99.99
2016-11-14T03:46:43.003Z,99.99
2016-11-14T03:47:53.016Z,99.99
2016-11-14T03:49:03.010Z,99.99
2016-11-14T03:50:13.080Z,99.99
2016-11-14T03:51:22.563Z,99.99
2016-11-14T03:52:32.602Z,99.99
2016-11-14T03:53:42.745Z,99.99
2016-11-14T03:54:52.864Z,99.99
2016-11-14T03:56:02.589Z,99.99
2016-11-14T03:57:12.898Z,99.99
2016-11-14T03:58:22.955Z,99.99
2016-11-14T03:59:32.635Z,99.99
2016-11-14T04:00:42.620Z,99.99
2016-11-14T04:01:52.721Z,99.99
2016-11-14T04:03:02.728Z,99.99
2016-11-14T04:04:12.417Z,99.99
2016-11-14T04:05:22.108Z,99.99
2016-11-14T04:06:32.181Z,99.99
2016-11-14T04:07:42.165Z,99.99
2016-11-14T04:08:51.611Z,99.99
2016-11-14T04:10:01.735Z,99.99
2016-11-14T04:11:11.991Z,99.99
2016-11-14T04:12:21.690Z,99.99
2016-11-14T04:13:31.496Z,99.99
2016-11-14T04:14:41.353Z,99.99
2016-11-14T04:15:51.395Z,99.99
2016-11-14T04:17:01.459Z,99.99
2016-11-14T04:18:11.147Z,99.99
2016-11-14T04:19:21.043Z,99.99
2016-11-14T04:20:30.429Z,99.99
2016-11-14T04:21:40.590Z,99.99
2016-11-14T04:22:49.983Z,99.99
2016-11-14T04:23:59.974Z,99.99
2016-11-14T04:25:10.000Z,99.99
2016-11-14T04:26:20.104Z,99.99
2016-11-14T04:27:29.800Z,99.99
2016-11-14T04:28:39.189Z,99.99
2016-11-14T04:29:49.549Z,99.99
2016-11-14T04:30:59.917Z,99.99
2016-11-14T04:32:10.229Z,99.99
2016-11-14T04:33:19.917Z,99.99
2016-11-14T04:34:29.674Z,99.99
2016-11-14T04:35:39.683Z,99.99
2016-11-14T04:36:49.442Z,99.99
2016-11-14T04:37:59.800Z,99.99
2016-11-14T04:39:09.857Z,99.99
2016-11-14T04:40:19.250Z,99.99
2016-11-14T04:41:29.050Z,99.99
2016-11-14T04:42:39.103Z,99.99
2016-11-14T04:43:49.461Z,99.99
2016-11-14T04:44:59.123Z,99.99
2016-11-14T04:46:09.181Z,99.99
2016-11-14T04:47:19.577Z,99.99
2016-11-14T04:48:29.666Z,99.99
2016-11-14T04:49:40.031Z,99.99
2016-11-14T04:50:50.421Z,99.99
2016-11-14T04:52:00.508Z,99.99
2016-11-14T04:53:10.821Z,99.99
2016-11-14T04:54:20.821Z,99.99
2016-11-14T04:55:31.298Z,99.99
2016-11-14T04:56:41.304Z,99.99
2016-11-14T04:57:51.727Z,99.99
2016-11-14T04:59:02.099Z,99.99
2016-11-14T05:00:12.137Z,99.99
2016-11-14T05:01:22.462Z,99.99
2016-11-14T05:02:32.780Z,99.99
2016-11-14T05:03:42.175Z,99.99
2016-11-14T05:04:52.141Z,99.99
2016-11-14T05:06:02.448Z,99.99
2016-11-14T05:07:11.719Z,99.99
2016-11-14T05:08:21.700Z,99.99
2016-11-14T05:09:31.627Z,99.99
2016-11-14T05:10:41.738Z,99.99
2016-11-14T05:11:51.838Z,99.99
2016-11-14T05:13:02.244Z,99.99
2016-11-14T05:14:11.358Z,99.99
2016-11-14T05:15:21.393Z,99.99
2016-11-14T05:16:31.846Z,99.99
2016-11-14T05:17:42.451Z,99.99
2016-11-14T05:18:52.446Z,99.99
2016-11-14T05:20:02.149Z,99.99
2016-11-14T05:21:12.510Z,99.99
2016-11-14T05:22:22.584Z,99.99
2016-11-14T05:23:32.913Z,99.99
2016-11-14T05:24:42.619Z,99.99
2016-11-14T05:25:52.689Z,99.99
2016-11-14T05:27:02.982Z,99.99
2016-11-14T05:28:13.449Z,99.99
2016-11-14T05:29:23.545Z,99.99
2016-11-14T05:30:33.641Z,99.99
2016-11-14T05:31:43.341Z,99.99
2016-11-14T05:32:53.684Z,99.99
2016-11-14T05:34:03.421Z,99.99
2016-11-14T05:35:13.420Z,99.99
2016-11-14T05:36:23.557Z,99.99
2016-11-14T05:37:33.274Z,99.99
2016-11-14T05:38:43.601Z,99.99
2016-11-14T05:39:52.987Z,99.99
2016-11-14T05:41:02.774Z,99.99
2016-11-14T05:42:12.202Z,99.99
2016-11-14T05:43:22.606Z,99.99
2016-11-14T05:44:33.106Z,99.99
2016-11-14T05:45:43.110Z,99.99
2016-11-14T05:46:53.549Z,99.99
2016-11-14T05:48:03.541Z,99.99
2016-11-14T05:49:13.830Z,99.99
2016-11-14T05:50:24.418Z,99.99
2016-11-14T05:51:34.409Z,99.99
2016-11-14T05:52:43.796Z,99.99
2016-11-14T05:53:53.810Z,99.99
2016-11-14T05:55:03.818Z,99.99
2016-11-14T05:56:13.961Z,99.99
2016-11-14T05:57:24.291Z,99.99
2016-11-14T05:58:34.590Z,99.99
2016-11-14T05:59:44.649Z,99.99
2016-11-14T06:00:55.008Z,99.99
2016-11-14T06:02:04.555Z,99.99
2016-11-14T06:03:14.401Z,99.99
2016-11-14T06:04:23.795Z,99.99
2016-11-14T06:05:33.941Z,99.99
2016-11-14T06:06:43.629Z,99.99
2016-11-14T06:07:53.312Z,99.99
2016-11-14T06:09:03.317Z,99.99
2016-11-14T06:10:13.429Z,99.99
2016-11-14T06:11:23.818Z,99.99
2016-11-14T06:12:33.537Z,99.99
2016-11-14T06:13:43.549Z,99.99
2016-11-14T06:14:53.249Z,99.99
2016-11-14T06:16:03.080Z,99.99
2016-11-14T06:17:13.088Z,99.99
2016-11-14T06:18:23.437Z,99.99
2016-11-14T06:19:33.200Z,99.99
2016-11-14T06:20:42.917Z,99.99
2016-11-14T06:21:53.233Z,99.99
2016-11-14T06:23:03.706Z,99.99
2016-11-14T06:24:13.085Z,99.99
2016-11-14T06:25:23.129Z,99.99
2016-11-14T06:26:32.819Z,99.99
2016-11-14T06:27:42.810Z,99.99
2016-11-14T06:28:52.562Z,99.99
2016-11-14T06:30:02.869Z,99.99
2016-11-14T06:31:13.294Z,99.99
2016-11-14T06:32:23.507Z,99.99
2016-11-14T06:33:33.517Z,99.99
2016-11-14T06:34:43.550Z,99.99
2016-11-14T06:35:53.867Z,99.99
2016-11-14T06:37:03.874Z,99.99
2016-11-14T06:38:14.186Z,99.99
2016-11-14T06:39:23.951Z,99.99
2016-11-14T06:40:34.268Z,99.99
2016-11-14T06:41:43.977Z,99.99
2016-11-14T06:42:54.296Z,99.99
2016-11-14T06:44:04.629Z,99.99
2016-11-14T06:45:14.721Z,99.99
2016-11-14T06:46:25.080Z,99.99
2016-11-14T06:47:34.817Z,99.99
2016-11-14T06:48:44.817Z,99.99
2016-11-14T06:49:54.818Z,99.99
2016-11-14T06:51:05.297Z,99.99
2016-11-14T06:52:15.358Z,99.99
2016-11-14T06:53:24.280Z,99.99
2016-11-14T06:54:33.366Z,99.99
2016-11-14T06:55:43.697Z,99.99
2016-11-14T06:56:54.031Z,99.99
2016-11-14T06:58:04.156Z,99.99
2016-11-14T06:59:14.457Z,99.99
2016-11-14T07:00:24.549Z,99.99
2016-11-14T07:01:34.642Z,99.99
2016-11-14T07:02:44.680Z,99.99
2016-11-14T07:03:55.038Z,99.99
2016-11-14T07:05:04.774Z,99.99
2016-11-14T07:06:15.448Z,99.99
2016-11-14T07:07:25.444Z,99.99
2016-11-14T07:08:35.319Z,99.99
2016-11-14T07:09:45.347Z,99.99
2016-11-14T07:10:55.353Z,99.99
2016-11-14T07:12:05.507Z,99.99
2016-11-14T07:13:15.962Z,99.99
2016-11-14T07:14:26.300Z,99.99
2016-11-14T07:15:35.988Z,99.99
2016-11-14T07:16:45.979Z,99.99
2016-11-14T07:17:55.726Z,99.99
2016-11-14T07:19:05.967Z,99.99
2016-11-14T07:20:15.967Z,99.99
2016-11-14T07:21:25.982Z,99.99
2016-11-14T07:22:35.986Z,99.99
2016-11-14T07:23:46.316Z,99.99
2016-11-14T07:24:56.315Z,99.99
2016-11-14T07:26:06.361Z,99.99
2016-11-14T07:27:16.659Z,99.99
2016-11-14T07:28:26.770Z,99.99
2016-11-14T07:29:36.455Z,99.99
2016-11-14T07:30:45.915Z,99.99
2016-11-14T07:31:55.609Z,99.99
2016-11-14T07:33:05.607Z,99.99
2016-11-14T07:34:15.666Z,99.99
2016-11-14T07:35:25.785Z,99.99
2016-11-14T07:36:34.860Z,99.99
2016-11-14T07:37:44.906Z,99.99
2016-11-14T07:38:55.339Z,99.99
2016-11-14T07:40:05.729Z,99.99
2016-11-14T07:41:15.435Z,99.99
2016-11-14T07:42:25.443Z,99.99
2016-11-14T07:43:35.756Z,99.99
2016-11-14T07:44:45.140Z,99.99
2016-11-14T07:45:55.790Z,99.99
2016-11-14T07:47:05.485Z,99.99
2016-11-14T07:48:15.646Z,99.99
2016-11-14T07:49:25.598Z,99.99
2016-11-14T07:50:35.909Z,99.99
2016-11-14T07:51:45.613Z,99.99
2016-11-14T07:52:55.630Z,99.99
2016-11-14T07:54:05.428Z,99.99
2016-11-14T07:55:15.588Z,99.99
2016-11-14T07:56:25.329Z,99.99
2016-11-14T07:57:35.998Z,99.99
2016-11-14T07:58:45.700Z,99.99
2016-11-14T07:59:56.131Z,99.99
2016-11-14T08:01:05.510Z,99.99
2016-11-14T08:02:15.739Z,99.99
2016-11-14T08:03:25.769Z,99.99
2016-11-14T08:04:35.878Z,99.99
2016-11-14T08:05:46.177Z,99.99
2016-11-14T08:06:56.508Z,99.99
2016-11-14T08:08:06.938Z,99.99
2016-11-14T08:09:16.969Z,99.99
2016-11-14T08:10:27.148Z,99.99
2016-11-14T08:11:37.457Z,99.99
2016-11-14T08:12:47.589Z,99.99
2016-11-14T08:13:57.909Z,99.99
2016-11-14T08:15:08.240Z,99.99
2016-11-14T08:16:18.252Z,99.99
2016-11-14T08:17:28.049Z,99.99
2016-11-14T08:18:37.738Z,99.99
2016-11-14T08:19:47.958Z,99.99
2016-11-14T08:20:57.720Z,99.99
2016-11-14T08:22:07.967Z,99.99
2016-11-14T08:23:17.984Z,99.99
2016-11-14T08:24:26.763Z,99.99
2016-11-14T08:25:36.798Z,99.99
2016-11-14T08:26:46.814Z,99.99
2016-11-14T08:27:56.910Z,99.99
2016-11-14T08:29:07.231Z,99.99
2016-11-14T08:30:17.258Z,99.99
2016-11-14T08:31:27.002Z,99.99
2016-11-14T08:32:36.685Z,99.99
2016-11-14T08:33:46.076Z,99.99
2016-11-14T08:34:55.607Z,99.99
2016-11-14T08:36:06.024Z,99.99
2016-11-14T08:37:15.842Z,99.99
2016-11-14T08:38:25.541Z,99.99
2016-11-14T08:39:35.536Z,99.99
2016-11-14T08:40:45.987Z,99.99
2016-11-14T08:41:56.033Z,99.99
2016-11-14T08:43:06.051Z,99.99
2016-11-14T08:44:15.419Z,99.99
2016-11-14T08:45:25.497Z,99.99
2016-11-14T08:46:36.020Z,99.99
2016-11-14T08:47:46.330Z,99.99
2016-11-14T08:48:56.119Z,99.99
2016-11-14T08:50:05.785Z,99.99
2016-11-14T08:51:15.836Z,99.99
2016-11-14T08:52:25.910Z,99.99
2016-11-14T08:53:36.069Z,99.99
2016-11-14T08:54:45.793Z,99.99
2016-11-14T08:55:56.083Z,99.99
2016-11-14T08:57:05.469Z,99.99
2016-11-14T08:58:15.209Z,99.99
2016-11-14T08:59:25.566Z,99.99
2016-11-14T09:00:35.290Z,99.99
2016-11-14T09:01:44.698Z,99.99
2016-11-14T09:02:54.063Z,99.99
2016-11-14T09:04:03.762Z,99.99
2016-11-14T09:05:13.629Z,99.99
2016-11-14T09:06:23.360Z,99.99
2016-11-14T09:07:32.822Z,99.99
2016-11-14T09:08:42.574Z,99.99
2016-11-14T09:09:52.728Z,99.99
2016-11-14T09:11:02.475Z,99.99
2016-11-14T09:12:12.477Z,99.99
2016-11-14T09:13:22.187Z,99.99
2016-11-14T09:14:32.191Z,99.99
2016-11-14T09:15:41.891Z,99.99
2016-11-14T09:16:52.225Z,99.99
2016-11-14T09:18:01.957Z,99.99
2016-11-14T09:19:11.325Z,99.99
2016-11-14T09:20:20.767Z,99.99
2016-11-14T09:21:30.767Z,99.99
2016-11-14T09:22:40.850Z,99.99
2016-11-14T09:23:50.247Z,99.99
2016-11-14T09:24:59.647Z,99.99
2016-11-14T09:26:09.348Z,99.99
2016-11-14T09:27:19.032Z,99.99
2016-11-14T09:28:29.036Z,99.99
2016-11-14T09:29:38.412Z,99.99
2016-11-14T09:30:48.851Z,99.99
2016-11-14T09:31:58.873Z,99.99
2016-11-14T09:33:09.317Z,99.99
2016-11-14T09:34:18.777Z,99.99
2016-11-14T09:35:28.328Z,99.99
2016-11-14T09:36:38.391Z,99.99
2016-11-14T09:37:47.778Z,99.99
2016-11-14T09:38:57.399Z,99.99
2016-11-14T09:40:06.497Z,99.99
2016-11-14T09:41:16.514Z,99.99
2016-11-14T09:42:26.184Z,99.99
2016-11-14T09:43:35.562Z,99.99
2016-11-14T09:44:44.709Z,99.99
2016-11-14T09:45:54.461Z,99.99
2016-11-14T09:47:04.161Z,99.99
2016-11-14T09:48:13.885Z,99.99
2016-11-14T09:49:23.876Z,99.99
2016-11-14T09:50:34.007Z,99.99
2016-11-14T09:51:44.199Z,99.99
2016-11-14T09:52:53.296Z,99.99
2016-11-14T09:54:03.589Z,99.99
2016-11-14T09:55:13.309Z,99.99
2016-11-14T09:56:23.119Z,99.99
2016-11-14T09:57:33.376Z,99.99
2016-11-14T09:58:42.770Z,99.99
2016-11-14T09:59:53.415Z,99.99
2016-11-14T10:01:03.543Z,99.99
2016-11-14T10:02:13.149Z,99.99
2016-11-14T10:03:23.802Z,99.99
2016-11-14T10:04:34.148Z,99.99
2016-11-14T10:05:44.479Z,99.99
2016-11-14T10:06:54.468Z,99.99
2016-11-14T10:08:03.841Z,99.99
2016-11-14T10:09:14.061Z,99.99
2016-11-14T10:10:24.120Z,99.99
2016-11-14T10:11:33.703Z,99.99
2016-11-14T10:12:44.133Z,99.99
2016-11-14T10:13:53.694Z,99.99
2016-11-14T10:15:02.883Z,99.99
2016-11-14T10:16:12.919Z,99.99
2016-11-14T10:17:23.047Z,99.99
2016-11-14T10:18:32.771Z,99.99
2016-11-14T10:19:42.769Z,99.99
2016-11-14T10:20:53.179Z,99.99
2016-11-14T10:22:02.899Z,99.99
2016-11-14T10:23:12.591Z,99.99
2016-11-14T10:24:22.647Z,99.99
2016-11-14T10:25:32.777Z,99.99
2016-11-14T10:26:42.527Z,99.99
2016-11-14T10:27:52.235Z,99.48
2016-11-14T10:29:01.921Z,99.67
2016-11-14T10:30:11.953Z,98.54
2016-11-14T10:31:21.675Z,97.59
2016-11-14T10:32:30.520Z,99.1
2016-11-14T10:33:40.366Z,99.99
2016-11-14T10:34:50.177Z,99.99
2016-11-14T10:36:00.222Z,99.99
2016-11-14T10:37:09.967Z,99.99
2016-11-14T10:38:19.977Z,99.99
2016-11-14T10:39:29.357Z,99.99
2016-11-14T10:40:39.731Z,97.83
2016-11-14T10:41:49.438Z,97.54
2016-11-14T10:42:59.518Z,95.17
2016-11-14T10:44:09.568Z,98.21
2016-11-14T10:45:19.899Z,96.22
2016-11-14T10:46:30.214Z,96.36
2016-11-14T10:47:40.578Z,97.59
2016-11-14T10:48:49.967Z,97.5
2016-11-14T10:49:59.990Z,95.31
2016-11-14T10:51:10.008Z,94.08
2016-11-14T10:52:20.101Z,97.5
2016-11-14T10:53:30.199Z,96.78
2016-11-14T10:54:40.209Z,98.02
2016-11-14T10:55:50.616Z,96.5
2016-11-14T10:57:00.618Z,91.85
2016-11-14T10:58:10.928Z,91.19
2016-11-14T10:59:20.962Z,93.75
2016-11-14T11:00:30.664Z,92.04
2016-11-14T11:01:39.736Z,90.81
2016-11-14T11:02:49.919Z,91.28
2016-11-14T11:03:59.310Z,89.67
2016-11-14T11:05:09.670Z,87.77
2016-11-14T11:06:19.674Z,89.76
2016-11-14T11:07:29.370Z,90.62
2016-11-14T11:08:39.128Z,88.72
2016-11-14T11:09:49.126Z,90.52
2016-11-14T11:10:59.325Z,90.43
2016-11-14T11:12:09.621Z,88.34
2016-11-14T11:13:19.762Z,88.72
2016-11-14T11:14:29.141Z,88.72
2016-11-14T11:15:38.644Z,88.34
2016-11-14T11:16:48.672Z,87.58
2016-11-14T11:17:58.058Z,87.2
2016-11-14T11:19:07.844Z,87.58
2016-11-14T11:20:18.157Z,87.39
2016-11-14T11:21:27.870Z,86.82
2016-11-14T11:22:37.898Z,86.82
2016-11-14T11:23:47.900Z,85.02
2016-11-14T11:24:57.611Z,85.49
2016-11-14T11:26:08.038Z,86.25
2016-11-14T11:27:17.751Z,85.49
2016-11-14T11:28:27.828Z,86.72
2016-11-14T11:29:37.569Z,85.4
2016-11-14T11:30:47.278Z,83.92
2016-11-14T11:31:57.058Z,82.93
2016-11-14T11:33:06.928Z,82.17
2016-11-14T11:34:16.940Z,82.55
2016-11-14T11:35:26.530Z,82.27
2016-11-14T11:36:36.756Z,82.27
2016-11-14T11:37:46.511Z,82.27
2016-11-14T11:38:57.154Z,82.17
2016-11-14T11:40:06.857Z,83.22
2016-11-14T11:41:17.252Z,82.65
2016-11-14T11:42:27.039Z,83.12
2016-11-14T11:43:37.446Z,83.31
2016-11-14T11:44:47.159Z,82.36
2016-11-14T11:45:57.220Z,82.17
2016-11-14T11:47:07.236Z,82.46
2016-11-14T11:48:17.606Z,82.36
2016-11-14T11:49:27.668Z,82.55
2016-11-14T11:50:37.689Z,82.65
2016-11-14T11:51:47.543Z,82.46
2016-11-14T11:52:57.318Z,81.93
2016-11-14T11:54:07.417Z,82.03
2016-11-14T11:55:17.407Z,81.26
2016-11-14T11:56:27.471Z,80.69
2016-11-14T11:57:37.798Z,80.69
2016-11-14T11:58:47.830Z,80.6
2016-11-14T11:59:58.270Z,81.07
2016-11-14T12:01:08.030Z,81.84
2016-11-14T12:02:18.345Z,80.98
2016-11-14T12:03:27.739Z,80.98
2016-11-14T12:04:38.099Z,81.41
2016-11-14T12:05:48.108Z,81.51
2016-11-14T12:06:58.119Z,81.17
2016-11-14T12:08:08.018Z,80.32
2016-11-14T12:09:18.330Z,81.04
2016-11-14T12:10:28.340Z,81.23
2016-11-14T12:11:38.208Z,80.69
2016-11-14T12:12:48.217Z,80.65
2016-11-14T12:13:58.254Z,80.56
2016-11-14T12:15:07.332Z,81.13
2016-11-14T12:16:16.710Z,80.56
2016-11-14T12:17:27.487Z,81.04
2016-11-14T12:18:37.260Z,81.51
2016-11-14T12:19:47.304Z,81.6
2016-11-14T12:20:57.457Z,80.65
2016-11-14T12:22:07.797Z,81.04
2016-11-14T12:23:18.114Z,81.51
2016-11-14T12:24:27.834Z,81.23
2016-11-14T12:25:37.935Z,81.51
2016-11-14T12:26:47.335Z,81.6
2016-11-14T12:27:57.800Z,82.55
2016-11-14T12:29:07.785Z,82.08
2016-11-14T12:30:17.808Z,81.98
2016-11-14T12:31:27.199Z,82.27
2016-11-14T12:32:37.538Z,82.17
2016-11-14T12:33:46.919Z,82.55
2016-11-14T12:34:57.138Z,82.74
2016-11-14T12:36:07.167Z,82.17
2016-11-14T12:37:16.797Z,82.08
2016-11-14T12:38:26.894Z,82.46
2016-11-14T12:39:37.268Z,82.17
2016-11-14T12:40:46.667Z,82.65
2016-11-14T12:41:56.672Z,82.55
2016-11-14T12:43:06.706Z,82.69
2016-11-14T12:44:16.093Z,82.08
2016-11-14T12:45:25.609Z,81.55
2016-11-14T12:46:35.927Z,81.79
2016-11-14T12:47:46.230Z,82.17
2016-11-14T12:48:56.608Z,81.88
2016-11-14T12:50:06.014Z,82.17
2016-11-14T12:51:16.338Z,82.08
2016-11-14T12:52:26.368Z,82.65
2016-11-14T12:53:36.198Z,82.74
2016-11-14T12:54:46.550Z,82.74
2016-11-14T12:55:56.890Z,82.74
2016-11-14T12:57:06.896Z,83.12
2016-11-14T12:58:17.238Z,82.65
2016-11-14T12:59:27.058Z,82.46
2016-11-14T13:00:37.366Z,82.65
2016-11-14T13:01:48.213Z,83.03
2016-11-14T13:02:58.008Z,82.46
2016-11-14T13:04:08.328Z,83.03
2016-11-14T13:05:18.490Z,82.55
2016-11-14T13:06:27.897Z,82.17
2016-11-14T13:07:38.217Z,81.79
2016-11-14T13:08:47.905Z,82.17
2016-11-14T13:09:57.651Z,82.08
2016-11-14T13:11:07.475Z,82.27
2016-11-14T13:12:17.501Z,81.98
2016-11-14T13:13:27.206Z,82.27
2016-11-14T13:14:37.046Z,82.21
2016-11-14T13:15:47.998Z,82.03
2016-11-14T13:16:58.328Z,81.07
2016-11-14T13:18:08.648Z,80.98
2016-11-14T13:19:18.477Z,81.07
2016-11-14T13:20:28.349Z,81.6
2016-11-14T13:21:38.336Z,81.79
2016-11-14T13:22:48.667Z,81.17
2016-11-14T13:23:58.973Z,81.55
2016-11-14T13:25:09.160Z,81.55
2016-11-14T13:26:19.218Z,81.36
2016-11-14T13:27:28.970Z,80.94
2016-11-14T13:28:39.426Z,81.07
2016-11-14T13:29:49.445Z,81.17
2016-11-14T13:30:59.868Z,80.69
2016-11-14T13:32:09.938Z,80.75
2016-11-14T13:33:20.051Z,81.04
2016-11-14T13:34:30.142Z,80.84
2016-11-14T13:35:40.457Z,81.04
2016-11-14T13:36:50.577Z,81.23
2016-11-14T13:38:00.280Z,81.04
2016-11-14T13:39:10.286Z,81.88
2016-11-14T13:40:20.335Z,81.41
2016-11-14T13:41:30.680Z,81.13
2016-11-14T13:42:40.827Z,80.46
2016-11-14T13:43:50.233Z,81.7
2016-11-14T13:44:59.942Z,81.04
2016-11-14T13:46:09.646Z,81.13
2016-11-14T13:47:19.754Z,80.65
2016-11-14T13:48:30.225Z,81.51
2016-11-14T13:49:40.233Z,81.98
2016-11-14T13:50:50.228Z,82.17
2016-11-14T13:52:00.233Z,81.6
2016-11-14T13:53:10.256Z,81.41
2016-11-14T13:54:20.025Z,80.18
2016-11-14T13:55:29.886Z,80.08
2016-11-14T13:56:40.200Z,80.65
2016-11-14T13:57:50.344Z,81.13
2016-11-14T13:59:00.776Z,80.65
2016-11-14T14:00:10.811Z,80.94
2016-11-14T14:01:21.250Z,80.84
2016-11-14T14:02:31.272Z,80.8
2016-11-14T14:03:40.965Z,80.9
2016-11-14T14:04:51.395Z,81.27
2016-11-14T14:06:01.123Z,80.99
2016-11-14T14:07:10.956Z,81.47
2016-11-14T14:08:21.192Z,80.9
2016-11-14T14:09:30.313Z,80.99
2016-11-14T14:10:40.679Z,80.99
2016-11-14T14:11:50.493Z,81.56
2016-11-14T14:13:00.589Z,81.47
2016-11-14T14:14:09.973Z,81.47
2016-11-14T14:15:19.707Z,81.94
2016-11-14T14:16:29.710Z,82.13
2016-11-14T14:17:40.057Z,82.42
2016-11-14T14:18:50.303Z,82.13
2016-11-14T14:20:00.037Z,82.04
2016-11-14T14:21:10.414Z,81.94
2016-11-14T14:22:20.136Z,81.75
2016-11-14T14:23:30.583Z,81.75
2016-11-14T14:24:40.589Z,81.66
2016-11-14T14:25:50.624Z,82.6
2016-11-14T14:27:00.432Z,82.42
2016-11-14T14:28:10.601Z,82.89
2016-11-14T14:29:20.936Z,82.51
2016-11-14T14:30:30.644Z,83.17
2016-11-14T14:31:40.369Z,82.6
2016-11-14T14:32:50.860Z,82.89
2016-11-14T14:34:00.251Z,82.7
2016-11-14T14:35:10.372Z,82.7
2016-11-14T14:36:20.109Z,83.08
2016-11-14T14:37:30.237Z,83.84
2016-11-14T14:38:40.254Z,83.84
2016-11-14T14:39:50.700Z,83.65
2016-11-14T14:41:01.029Z,84.03
2016-11-14T14:42:11.036Z,84.59
2016-11-14T14:43:21.055Z,84.59
2016-11-14T14:44:31.084Z,84.5
2016-11-14T14:45:41.424Z,84.5
2016-11-14T14:46:51.469Z,84.78
2016-11-14T14:48:01.529Z,84.69
2016-11-14T14:49:11.637Z,84.03
2016-11-14T14:50:21.374Z,84.41
2016-11-14T14:51:31.415Z,84.69
2016-11-14T14:52:41.803Z,84.59
2016-11-14T14:53:52.186Z,84.03
2016-11-14T14:55:02.801Z,83.94
2016-11-14T14:56:12.807Z,84.08
2016-11-14T14:57:22.838Z,84.55
2016-11-14T14:58:32.849Z,84.03
2016-11-14T14:59:42.545Z,82.66
2016-11-14T15:00:52.324Z,83.04
2016-11-14T15:02:02.856Z,82.56